Aérodrome :
LOGIN :

S'inscrire | Disclaimer

   EN    FR    IT 

 










Légende :    VFR   VFR Marginal   IFR   IFR Intensif   IFR Très Intensif
Visi : 
Plafond : 
>= 8 km
>= 3000ft
5 à 8 km
1000 à 3000 ft
1500m à 5 km
500 à 1000 ft
800 à 1500m
200 à 500 ft
< 800m
< 200 ft
Symboles :   Orages  Brouillard  Fortes neiges  Fortes précipitations  Vent > 20 kt
SIGMETs :   Divers  Orages  Givrage  Turbulence  Onde Orograph.  Cendres Volcan.







- Altitude de l'aérodrome : 1345 ft
- Code IATA : FRZ


ETHF - Fritzlar

DERNIER METAR :
  • 171132Z VRB03KT 5000 BR FEW003 BKN260 14/14 Q1019 WHT WHT BECMG BLU+

METARs EXPIRÉS :
  • 171120Z VRB02KT 4500 VCFG BR FEW002 BKN270 13/13 Q1019 GRN GRN BECMG BLU+
  • 171109Z 17001KT 2500 VCFG BR FEW002 BKN280 13/12 Q1019 YLO YLO BECMG BLU+
  • 171100Z VRB02KT 1500 R12/2600D VCFG BR BKN002 BKN300 12/12 Q1020 AMB AMB BECMG BLU+
  • 171042Z VRB02KT 0900 R12/1800U FG VV002 11/11 Q1020 AMB AMB BECMG BLU+
  • 171020Z 12002KT 0600 R12/0600N FG VV001 11/11 Q1020 RED RED BECMG BLU+
  • 170920Z VRB01KT 0200 FG VV001 10/10 Q1020 RED RED

TAF TAF ETHF
Valide du 17 à 11h jusqu'au 17 à 20h UTC


171020Z 1711/1720 13002KT 2000 BR SCT005
BECMG 1711/1712 14005KT 8000 NSW FEW007 SCT280
Pas de NOTAMs connus pour ce terrain.



MET'MAP, la Météo Aéronautique d'un coup d'oeil ! - Copyright ORBIFLY Décembre 2007 - Disclaimer

ORBIFLY MET'MAP TEAM :

Programmation & Développement : Alexandra Zaïnal
Conception & Développement : Baudouin d'Aumeries
Co-Programmation & Développement : Marc-Olivier Méhu
Soutien technique & logistique : Manuel Goepfert

Contact : metmap@orbifly.com




SOURCES & CREDITS :

   NOAA